Time;durP1;ratioP1;P1;durP2;ratioP2;P2;SDS_P1;SDS_P2;PMS_P1;PMS_P2;Temp;Humidity;BMP_temperature;BMP_pressure;BME280_temperature;BME280_humidity;BME280_pressure;Samples;Min_cycle;Max_cycle;Signal;HPM_P1;HPM_P2
2024/03/13 00:02:21;;;;;;;38.80;15.00;;;;;;;-147.86;52.12;47695.45;105273;1260;59710;-48
2024/03/13 00:04:49;;;;;;;40.20;13.10;;;;;;;-147.86;52.42;47706.43;105319;1264;59608;-48
2024/03/13 00:07:16;;;;;;;30.30;14.00;;;;;;;-147.86;52.00;47700.15;105266;1265;71548;-47
2024/03/13 00:09:49;;;;;;;30.30;13.90;;;;;;;-147.86;52.41;47715.05;105259;1260;64231;-48
2024/03/13 00:12:17;;;;;;;29.60;13.20;;;;;;;-147.86;52.07;47718.19;105304;1264;72715;-45
2024/03/13 00:14:52;;;;;;;30.30;13.80;;;;;;;-147.86;52.10;47720.93;105263;1260;59622;-46
2024/03/13 00:17:20;;;;;;;29.60;13.20;;;;;;;-147.86;52.40;47719.75;105242;1262;59634;-49
2024/03/13 00:19:51;;;;;;;30.40;13.00;;;;;;;-147.86;52.81;47735.04;105259;1261;73121;-46
2024/03/13 00:22:19;;;;;;;36.10;13.60;;;;;;;-147.86;52.62;47729.16;105276;1263;63919;-45
2024/03/13 00:24:48;;;;;;;27.80;12.70;;;;;;;-147.86;52.84;47735.43;105253;1263;71399;-46
2024/03/13 00:27:16;;;;;;;34.90;13.10;;;;;;;-147.86;53.20;47728.77;105251;1264;59674;-48
2024/03/13 00:29:47;;;;;;;33.00;13.80;;;;;;;-147.86;53.46;47741.71;105231;1266;59536;-46
2024/03/13 00:32:16;;;;;;;27.80;14.00;;;;;;;-147.86;53.64;47727.20;105288;1265;73030;-48
2024/03/13 00:34:45;;;;;;;34.30;14.00;;;;;;;-147.86;53.99;47733.48;105261;1261;63952;-49
2024/03/13 00:37:13;;;;;;;39.50;13.90;;;;;;;-147.86;54.04;47726.81;105250;1265;72613;-47
2024/03/13 00:39:41;;;;;;;40.20;14.70;;;;;;;-147.86;54.33;47732.70;105205;1260;59665;-46
2024/03/13 00:42:11;;;;;;;35.80;13.70;;;;;;;-147.86;54.39;47727.20;105274;1265;59554;-47
2024/03/13 00:44:40;;;;;;;41.00;13.00;;;;;;;-147.86;54.49;47731.52;105223;1260;73001;-49
2024/03/13 00:47:08;;;;;;;34.60;14.00;;;;;;;-147.86;54.32;47737.00;105274;1262;63948;-49
2024/03/13 00:49:36;;;;;;;39.80;13.90;;;;;;;-147.86;54.38;47734.65;105297;1263;71526;-47
2024/03/13 00:52:04;;;;;;;39.90;13.90;;;;;;;-147.86;54.66;47715.05;105247;1263;59751;-47
2024/03/13 00:54:33;;;;;;;31.10;13.10;;;;;;;-147.86;54.93;47727.20;105218;1263;59721;-47
2024/03/13 00:57:01;;;;;;;41.60;14.10;;;;;;;-147.86;54.79;47720.93;105186;1265;73035;-46
2024/03/13 00:59:30;;;;;;;38.60;13.90;;;;;;;-147.86;55.16;47711.91;105255;1265;63992;-46
2024/03/13 01:01:59;;;;;;;39.20;13.90;;;;;;;-147.86;55.60;47720.93;105246;1265;72475;-46
2024/03/13 01:04:26;;;;;;;33.80;13.70;;;;;;;-147.86;55.65;47701.33;105281;1265;59750;-45
2024/03/13 01:06:54;;;;;;;41.60;14.40;;;;;;;-147.86;55.39;47712.30;105200;1265;59659;-46
2024/03/13 01:09:24;;;;;;;32.10;13.60;;;;;;;-147.86;55.41;47707.99;105234;1263;71784;-47
2024/03/13 01:11:52;;;;;;;30.20;13.20;;;;;;;-147.86;55.45;47717.79;105232;1265;65285;-47
2024/03/13 01:14:20;;;;;;;39.40;14.80;;;;;;;-147.86;56.09;47707.21;105212;1265;71432;-48
2024/03/13 01:16:53;;;;;;;33.40;13.80;;;;;;;-147.86;56.59;47704.07;105254;1262;59757;-47
2024/03/13 01:19:21;;;;;;;37.60;15.30;;;;;;;-147.86;56.56;47697.80;105264;1263;59539;-48
2024/03/13 01:21:53;;;;;;;39.60;15.40;;;;;;;-147.86;56.43;47696.23;105464;1259;71799;-47
2024/03/13 01:24:21;;;;;;;38.90;14.30;;;;;;;-147.86;56.60;47697.80;105587;1262;65198;-48
2024/03/13 01:26:49;;;;;;;33.00;13.70;;;;;;;-147.86;56.28;47698.20;105459;1262;71550;-47
2024/03/13 01:29:17;;;;;;;31.50;13.10;;;;;;;-147.86;56.41;47683.69;105610;1261;59676;-47
2024/03/13 01:31:45;;;;;;;35.70;13.90;;;;;;;-147.86;56.35;47684.86;105604;1262;59656;-49
2024/03/13 01:34:12;;;;;;;30.80;14.50;;;;;;;-147.86;56.60;47689.57;105454;1262;73031;-44
2024/03/13 01:39:28;;;;;;;40.80;14.00;;;;;;;-147.86;56.38;47673.11;105453;1258;72713;-48
2024/03/13 01:56:24;;;;;;;44.60;14.60;;;;;;;-147.86;56.84;47659.38;105502;1262;59756;-47
2024/03/13 02:04:30;;;;;;;48.90;13.90;;;;;;;-147.86;57.56;47652.32;105570;1258;63119;-47
2024/03/13 02:06:59;;;;;;;40.60;15.10;;;;;;;-147.86;57.59;47655.85;105606;1263;72600;-46
2024/03/13 02:09:27;;;;;;;44.90;15.40;;;;;;;-147.86;57.57;47646.45;105472;1259;59736;-46
2024/03/13 02:11:55;;;;;;;35.60;14.10;;;;;;;-147.86;57.61;47648.40;105559;1256;60453;-48
2024/03/13 02:14:22;;;;;;;40.90;14.70;;;;;;;-147.86;57.48;47653.50;105524;1262;71973;-45
2024/03/13 02:16:53;;;;;;;33.80;14.00;;;;;;;-147.86;57.85;47645.66;105514;1259;63292;-46
2024/03/13 02:19:21;;;;;;;34.80;13.80;;;;;;;-147.86;58.32;47645.27;105501;1258;71432;-47
2024/03/13 02:21:53;;;;;;;39.30;14.70;;;;;;;-147.86;58.15;47641.74;105289;1259;59728;-46
2024/03/13 02:24:22;;;;;;;38.80;14.90;;;;;;;-147.86;58.03;47639.00;105553;1260;59531;-48
2024/03/13 02:26:50;;;;;;;39.20;14.50;;;;;;;-147.86;57.90;47639.39;105546;1262;72099;-46
2024/03/13 02:29:17;;;;;;;42.00;14.90;;;;;;;-147.86;57.43;47622.14;105491;1262;63952;-48
2024/03/13 02:31:45;;;;;;;36.90;13.60;;;;;;;-147.86;57.58;47631.55;105531;1262;71513;-47
2024/03/13 02:34:15;;;;;;;36.90;13.90;;;;;;;-147.86;57.81;47631.16;105554;1259;59733;-48
2024/03/13 02:36:43;;;;;;;40.20;14.10;;;;;;;-147.86;57.51;47619.00;105503;1257;59739;-47
2024/03/13 02:39:10;;;;;;;49.30;15.50;;;;;;;-147.86;57.67;47640.56;105460;1258;73011;-46
2024/03/13 02:41:39;;;;;;;33.40;14.30;;;;;;;-147.86;57.16;47629.59;105460;1258;65395;-48
2024/03/13 02:44:06;;;;;;;53.20;14.60;;;;;;;-147.86;57.49;47626.45;105510;1258;72648;-46
2024/03/13 02:46:34;;;;;;;28.40;12.40;;;;;;;-147.86;58.20;47626.45;105503;1259;59635;-46
2024/03/13 02:49:02;;;;;;;36.20;13.70;;;;;;;-147.86;58.33;47617.04;105471;1262;59648;-48
2024/03/13 02:51:30;;;;;;;28.20;12.80;;;;;;;-147.86;58.66;47616.26;105502;1262;72962;-46
2024/03/13 02:53:57;;;;;;;33.70;13.30;;;;;;;-147.86;58.62;47616.65;105506;1262;64428;-47
2024/03/13 02:56:25;;;;;;;40.30;13.10;;;;;;;-147.86;58.67;47614.30;105579;1262;71525;-45
2024/03/13 02:58:53;;;;;;;29.50;13.60;;;;;;;-147.86;58.54;47606.85;105491;1261;59708;-47
2024/03/13 03:01:20;;;;;;;38.30;13.40;;;;;;;-147.86;58.72;47614.30;105466;1262;59763;-46
2024/03/13 03:03:49;;;;;;;38.40;13.20;;;;;;;-147.86;58.82;47611.16;105460;1257;71742;-49
2024/03/13 03:06:17;;;;;;;33.10;12.20;;;;;;;-147.86;59.28;47611.95;105517;1260;64075;-47
2024/03/13 03:08:45;;;;;;;32.50;12.60;;;;;;;-147.86;59.23;47591.17;105553;1259;71430;-46
2024/03/13 03:11:13;;;;;;;30.00;12.50;;;;;;;-147.86;59.12;47588.04;105508;1259;59746;-48
2024/03/13 03:13:40;;;;;;;31.10;12.80;;;;;;;-147.86;59.04;47588.82;105470;1263;59539;-49
2024/03/13 03:16:08;;;;;;;29.70;12.60;;;;;;;-147.86;59.34;47593.52;105499;1257;72997;-46
2024/03/13 03:18:36;;;;;;;35.00;12.90;;;;;;;-147.86;59.54;47589.99;105457;1262;63932;-45
2024/03/13 03:21:07;;;;;;;32.70;12.80;;;;;;;-147.86;59.63;47595.09;105545;1263;71126;-48
2024/03/13 03:23:35;;;;;;;35.50;12.30;;;;;;;-147.86;59.82;47590.39;105534;1262;59879;-48
2024/03/13 03:26:03;;;;;;;36.50;12.60;;;;;;;-147.86;59.87;47581.37;105487;1259;59742;-47
2024/03/13 03:28:31;;;;;;;27.40;12.00;;;;;;;-147.86;60.24;47573.92;105504;1260;73033;-47
2024/03/13 03:31:01;;;;;;;33.40;11.80;;;;;;;-147.86;60.30;47575.88;105521;1261;65310;-48
2024/03/13 03:33:29;;;;;;;26.00;12.10;;;;;;;-147.86;60.48;47573.92;105671;1258;71352;-47
2024/03/13 03:35:57;;;;;;;34.00;12.30;;;;;;;-147.86;60.69;47559.42;105545;1257;59602;-48
2024/03/13 03:38:28;;;;;;;29.60;11.60;;;;;;;-147.86;61.70;47563.34;105597;1261;59733;-45
2024/03/13 03:40:56;;;;;;;29.60;12.50;;;;;;;-147.86;62.37;47563.34;105511;1262;71742;-48
2024/03/13 03:43:25;;;;;;;33.40;11.70;;;;;;;-147.86;62.59;47555.89;105632;1258;65269;-47
2024/03/13 03:45:54;;;;;;;25.10;11.40;;;;;;;-147.86;63.04;47550.40;105489;1260;71112;-48
2024/03/13 03:48:22;;;;;;;34.50;11.90;;;;;;;-147.86;63.56;47538.64;105512;1262;60501;-49
2024/03/13 03:50:49;;;;;;;25.20;11.30;;;;;;;-147.86;63.62;47533.94;105475;1262;60417;-48
2024/03/13 03:53:18;;;;;;;30.00;11.60;;;;;;;-147.86;64.41;47538.64;105624;1262;73796;-47
2024/03/13 03:55:46;;;;;;;30.00;11.80;;;;;;;-147.86;65.21;47522.96;105496;1262;65180;-48
2024/03/13 03:58:14;;;;;;;28.20;11.00;;;;;;;-147.86;65.72;47510.02;105729;1257;72615;-47
2024/03/13 04:00:42;;;;;;;27.30;11.70;;;;;;;-147.86;66.41;47509.63;105745;1259;60523;-48
2024/03/13 04:03:12;;;;;;;29.10;10.90;;;;;;;-147.86;67.45;47494.74;105727;1267;60484;-46
2024/03/13 04:05:40;;;;;;;22.80;10.70;;;;;;;-147.86;68.12;47487.68;105765;1258;73735;-46
2024/03/13 04:08:08;;;;;;;28.10;10.70;;;;;;;-147.86;68.56;47481.80;105775;1254;65262;-48
2024/03/13 04:10:38;;;;;;;31.00;11.30;;;;;;;-147.86;68.95;47480.23;105762;1254;71861;-49
2024/03/13 04:20:18;;;;;;;24.60;10.60;;;;;;;-147.86;70.10;47368.12;102667;1292;600060;-48
2024/03/13 04:22:46;;;;;;;;;;;;;;;-147.86;71.29;47426.93;104909;1272;59255;-45
2024/03/13 04:25:14;;;;;;;24.60;10.20;;;;;;;-147.86;71.08;47407.32;104914;1265;59359;-46
2024/03/13 04:27:43;;;;;;;23.10;10.20;;;;;;;-147.86;71.65;47403.79;104929;1270;71996;-48
2024/03/13 04:30:14;;;;;;;20.80;10.00;;;;;;;-147.86;71.23;47383.80;104912;1266;63936;-48
2024/03/13 04:32:42;;;;;;;32.70;10.50;;;;;;;-147.86;70.85;47362.24;104709;1273;271537;-47
2024/03/13 04:35:11;;;;;;;24.20;10.70;;;;;;;-147.86;70.36;47360.28;105226;1264;59334;-46
2024/03/13 04:37:40;;;;;;;25.00;10.40;;;;;;;-147.86;70.59;47349.30;105211;1267;59769;-45
2024/03/13 04:40:08;;;;;;;27.70;10.70;;;;;;;-147.86;71.28;47341.07;105191;1267;70044;-45
2024/03/13 04:42:37;;;;;;;24.60;10.60;;;;;;;-147.86;70.98;47330.09;105201;1264;63919;-46
2024/03/13 04:45:06;;;;;;;24.90;9.50;;;;;;;-147.86;69.73;47322.26;105206;1264;72606;-46
2024/03/13 04:47:35;;;;;;;25.50;11.00;;;;;;;-147.86;68.87;47309.32;105218;1267;59714;-47
2024/03/13 04:50:08;;;;;;;29.30;11.80;;;;;;;-147.86;69.38;47313.24;105281;1269;59565;-46
2024/03/13 04:52:36;;;;;;;36.10;11.70;;;;;;;-147.86;69.72;47285.41;105216;1264;71839;-48
2024/03/13 04:55:05;;;;;;;33.90;10.80;;;;;;;-147.86;67.84;47295.21;105182;1267;67800;-46
2024/03/13 04:57:34;;;;;;;28.60;10.40;;;;;;;-147.86;68.20;47286.59;105937;1258;74435;-49
2024/03/13 05:00:04;;;;;;;24.80;10.90;;;;;;;-147.86;68.76;47288.95;105919;1256;59641;-45
2024/03/13 05:02:32;;;;;;;25.00;11.30;;;;;;;-147.86;68.65;47283.45;106012;1251;62406;-47
2024/03/13 05:05:04;;;;;;;29.70;11.40;;;;;;;-147.86;68.21;47260.72;105937;1252;71799;-46
2024/03/13 05:07:31;;;;;;;27.30;11.10;;;;;;;-147.86;68.18;47272.09;105972;1257;65186;-47
2024/03/13 05:09:59;;;;;;;25.00;10.50;;;;;;;-147.86;67.68;47264.24;105962;1256;71419;-48
2024/03/13 05:12:34;;;;;;;23.30;10.50;;;;;;;-147.86;68.47;47257.58;105937;1257;59622;-46
2024/03/13 05:15:04;;;;;;;19.30;10.70;;;;;;;-147.86;68.95;47250.53;105932;1258;59529;-46
2024/03/13 05:17:34;;;;;;;26.50;10.80;;;;;;;-147.86;68.15;47259.15;105760;1257;73041;-47
2024/03/13 05:20:11;;;;;;;30.50;10.40;;;;;;;-147.86;66.92;47235.24;105763;1254;65105;-46
2024/03/13 05:22:39;;;;;;;26.10;11.40;;;;;;;-147.86;66.83;47228.58;105724;1257;71723;-45
2024/03/13 05:25:12;;;;;;;31.50;10.40;;;;;;;-147.86;67.29;47233.28;105720;1255;60019;-48
2024/03/13 05:27:46;;;;;;;32.50;11.20;;;;;;;-147.86;68.50;47229.36;105737;1257;59638;-48
2024/03/13 05:30:15;;;;;;;27.00;10.90;;;;;;;-147.86;68.76;47218.78;105714;1254;72623;-46
2024/03/13 05:32:43;;;;;;;32.10;10.40;;;;;;;-147.86;68.23;47210.54;105754;1254;64280;-48
2024/03/13 05:35:12;;;;;;;27.50;9.80;;;;;;;-147.86;68.00;47214.07;105749;1253;71459;-49
2024/03/13 05:37:40;;;;;;;28.00;10.20;;;;;;;-147.86;68.72;47205.05;105703;1254;59645;-49
2024/03/13 05:40:19;;;;;;;22.50;9.90;;;;;;;-147.86;69.47;47202.71;105721;1258;59664;-48
2024/03/13 05:42:47;;;;;;;25.90;9.90;;;;;;;-147.86;68.82;47186.63;105759;1254;71795;-45
2024/03/13 05:45:15;;;;;;;24.20;10.00;;;;;;;-147.86;67.40;47184.68;105893;1257;63952;-47
2024/03/13 05:47:44;;;;;;;24.50;8.90;;;;;;;-147.86;67.15;47183.89;105787;1258;72603;-47
2024/03/13 05:50:12;;;;;;;27.90;9.30;;;;;;;-147.86;67.24;47180.36;105719;1257;59648;-46
2024/03/13 05:52:41;;;;;;;22.90;10.10;;;;;;;-147.86;66.99;47169.39;105736;1254;59663;-46
2024/03/13 05:55:08;;;;;;;25.30;8.90;;;;;;;-147.86;67.36;47158.02;105688;1254;72986;-47
2024/03/13 05:57:38;;;;;;;25.70;9.60;;;;;;;-147.86;65.05;47158.80;105674;1257;64275;-46
2024/03/13 06:00:09;;;;;;;28.40;9.90;;;;;;;-147.86;64.28;47163.90;105724;1255;73812;-46
2024/03/13 06:02:43;;;;;;;25.80;9.70;;;;;;;-147.86;65.24;47163.90;105830;1258;59717;-47
2024/03/13 06:05:14;;;;;;;27.80;10.00;;;;;;;-147.86;64.18;47153.32;105907;1254;60331;-47
2024/03/13 06:07:43;;;;;;;30.60;10.10;;;;;;;-147.86;62.04;47149.79;105721;1258;74985;-48
2024/03/13 06:10:11;;;;;;;16.40;8.10;;;;;;;-147.86;62.56;47166.65;105915;1257;65387;-45
2024/03/13 06:12:39;;;;;;;29.80;8.70;;;;;;;-147.86;61.29;47165.86;105682;1257;72600;-47
2024/03/13 06:15:07;;;;;;;24.00;9.50;;;;;;;-147.86;59.67;47176.05;105716;1254;59651;-45
2024/03/13 06:17:35;;;;;;;26.10;8.90;;;;;;;-147.86;58.75;47190.95;105706;1254;59979;-47
2024/03/13 06:20:11;;;;;;;21.40;7.90;;;;;;;-147.86;58.42;47194.87;105885;1257;76240;-49
2024/03/13 06:22:42;;;;;;;20.10;7.40;;;;;;;-147.86;57.69;47205.84;105722;1254;67178;-48
2024/03/13 06:25:12;;;;;;;19.90;7.40;;;;;;;-147.86;56.76;47216.43;105699;1254;72169;-47
2024/03/13 06:27:40;;;;;;;19.10;8.70;;;;;;;-147.86;55.76;47245.04;105731;1257;59711;-47
2024/03/13 06:30:09;;;;;;;23.40;7.50;;;;;;;-147.86;55.63;47259.54;105842;1254;61033;-47
2024/03/13 06:32:37;;;;;;;25.10;7.50;;;;;;;-147.86;55.38;47268.56;105713;1253;73013;-48
2024/03/13 06:35:05;;;;;;;20.80;7.30;;;;;;;-147.86;54.57;47295.61;105840;1254;64462;-46
2024/03/13 06:37:33;;;;;;;28.50;7.90;;;;;;;-147.86;54.81;47297.57;105728;1254;72770;-47
2024/03/13 06:40:01;;;;;;;32.90;8.70;;;;;;;-147.86;54.46;47300.30;105704;1257;59558;-47
2024/03/13 06:42:30;;;;;;;20.70;7.60;;;;;;;-147.86;53.41;47336.37;105723;1257;59635;-47
2024/03/13 06:44:59;;;;;;;31.40;7.90;;;;;;;-147.86;52.43;47351.66;105697;1258;73324;-48
2024/03/13 06:47:26;;;;;;;27.30;7.70;;;;;;;-147.86;52.50;47366.55;105863;1254;63215;-48
2024/03/13 06:49:54;;;;;;;20.30;7.50;;;;;;;-147.86;52.15;47389.68;105685;1258;72647;-48
2024/03/13 06:52:23;;;;;;;19.90;7.40;;;;;;;-147.86;51.43;47407.71;105876;1257;59729;-48
2024/03/13 06:54:51;;;;;;;23.00;7.50;;;;;;;-147.86;51.61;47418.29;105789;1257;59609;-49
2024/03/13 06:57:19;;;;;;;28.80;8.00;;;;;;;-147.86;51.71;47433.20;105688;1254;73521;-49
2024/03/13 06:59:47;;;;;;;19.30;8.60;;;;;;;-147.86;51.77;47452.40;105880;1254;63945;-47
2024/03/13 07:02:17;;;;;;;37.60;8.40;;;;;;;-147.86;52.29;47454.36;105729;1257;71602;-46
2024/03/13 07:04:45;;;;;;;42.80;8.30;;;;;;;-147.86;51.33;47466.12;105701;1253;60057;-46
2024/03/13 07:07:13;;;;;;;34.80;7.60;;;;;;;-147.86;52.09;47487.29;105702;1257;59616;-46
2024/03/13 07:09:42;;;;;;;30.70;7.30;;;;;;;-147.86;52.61;47508.85;105744;1254;73038;-49
2024/03/13 07:12:11;;;;;;;22.30;7.10;;;;;;;-147.86;52.52;47515.12;105841;1254;63970;-48
2024/03/13 07:14:39;;;;;;;15.80;6.10;;;;;;;-147.86;52.63;47521.79;105715;1254;73224;-47
2024/03/13 07:17:06;;;;;;;26.20;7.10;;;;;;;-147.86;53.34;47523.75;105734;1253;59616;-46
2024/03/13 07:19:35;;;;;;;21.90;7.40;;;;;;;-147.86;53.67;47531.20;105686;1254;60973;-48
2024/03/13 07:22:03;;;;;;;35.00;7.80;;;;;;;-147.86;53.55;47531.20;105733;1254;75312;-46
2024/03/13 07:24:32;;;;;;;37.70;7.80;;;;;;;-147.86;52.95;47537.86;105732;1254;63250;-46
2024/03/13 07:26:59;;;;;;;24.90;8.70;;;;;;;-147.86;52.47;47528.84;105890;1257;71771;-47
2024/03/13 07:29:27;;;;;;;24.90;7.50;;;;;;;-147.86;52.38;47538.64;105844;1256;61015;-46
2024/03/13 07:31:56;;;;;;;25.30;7.80;;;;;;;-147.86;52.25;47548.45;105717;1253;59768;-45
2024/03/13 07:34:23;;;;;;;28.50;8.10;;;;;;;-147.86;52.04;47540.60;105700;1254;73414;-48
2024/03/13 07:36:51;;;;;;;25.90;8.50;;;;;;;-147.86;52.00;47555.89;105692;1253;63242;-47
2024/03/13 07:39:21;;;;;;;33.90;8.60;;;;;;;-147.86;52.84;47562.95;105687;1253;72178;-50
2024/03/13 07:41:48;;;;;;;31.70;8.10;;;;;;;-147.86;53.31;47562.95;105893;1257;59830;-48
2024/03/13 07:44:16;;;;;;;22.10;7.90;;;;;;;-147.86;53.12;47555.50;105727;1257;59727;-48
2024/03/13 07:46:44;;;;;;;35.10;7.80;;;;;;;-147.86;52.87;47563.73;105996;1257;72889;-47
2024/03/13 07:49:13;;;;;;;21.80;7.00;;;;;;;-147.86;52.81;47558.63;105693;1254;64389;-46
2024/03/13 07:51:42;;;;;;;24.80;7.60;;;;;;;-147.86;53.36;47565.69;105889;1254;72511;-50
2024/03/13 07:54:09;;;;;;;22.50;7.50;;;;;;;-147.86;54.46;47565.70;105905;1257;59673;-46
2024/03/13 07:56:38;;;;;;;30.80;8.90;;;;;;;-147.86;55.50;47582.15;105731;1253;62265;-47
2024/03/13 07:59:06;;;;;;;33.80;9.40;;;;;;;-147.86;56.96;47564.90;105730;1254;73390;-48
2024/03/13 08:01:40;;;;;;;38.50;8.90;;;;;;;-147.86;57.05;47563.34;105704;1257;64773;-49
2024/03/13 08:04:08;;;;;;;28.10;7.50;;;;;;;-147.86;57.95;47554.32;105886;1254;72488;-49
2024/03/13 08:06:38;;;;;;;42.10;8.10;;;;;;;-147.86;58.61;47553.54;105719;1257;60018;-52
2024/03/13 08:09:28;;;;;;;38.00;8.40;;;;;;;-147.86;61.67;47550.40;105687;1256;60969;-47
2024/03/13 08:12:13;;;;;;;45.30;8.10;;;;;;;-147.86;63.06;47512.38;105685;1253;72403;-48
2024/03/13 08:14:58;;;;;;;25.50;8.40;;;;;;;-147.86;66.11;47497.48;105670;1257;67823;-48
2024/03/13 08:17:45;;;;;;;22.70;8.70;;;;;;;-147.86;68.00;47469.65;105708;1257;72709;-45
2024/03/13 08:20:30;;;;;;;20.00;8.70;;;;;;;-147.86;68.65;47455.14;105654;1257;59596;-47
2024/03/13 08:23:15;;;;;;;31.70;12.20;;;;;;;-147.86;68.51;47423.39;105701;1257;59634;-49
2024/03/13 08:26:00;;;;;;;25.60;7.40;;;;;;;-147.86;70.70;47406.15;105661;1253;72192;-47
2024/03/13 08:28:45;;;;;;;27.00;9.20;;;;;;;-147.86;69.92;47381.84;105730;1257;65665;-49
2024/03/13 08:31:32;;;;;;;23.20;8.20;;;;;;;-147.86;71.01;47347.74;105682;1253;72048;-50
2024/03/13 08:34:17;;;;;;;27.30;8.10;;;;;;;-147.86;72.17;47318.73;105707;1257;60632;-49
2024/03/13 08:37:06;;;;;;;17.70;8.10;;;;;;;-147.86;73.00;47281.88;105676;1257;60441;-48
2024/03/13 08:39:51;;;;;;;22.50;10.50;;;;;;;-147.86;71.09;47250.92;105710;1254;73710;-51
2024/03/13 08:42:39;;;;;;;122.70;44.90;;;;;;;-147.86;72.68;47233.67;105702;1257;65847;-53
2024/03/13 08:45:28;;;;;;;78.20;32.70;;;;;;;-147.86;72.85;47185.07;105669;1254;74929;-53
2024/03/13 08:48:14;;;;;;;64.20;22.10;;;;;;;-147.86;71.33;47151.75;105679;1257;60359;-48
2024/03/13 08:51:03;;;;;;;48.70;14.70;;;;;;;-147.86;67.51;47140.77;105687;1254;60636;-46
2024/03/13 08:53:48;;;;;;;104.80;48.50;;;;;;;-147.86;62.23;47118.82;105691;1254;74872;-56
2024/03/13 08:56:38;;;;;;;29.70;11.90;;;;;;;-147.86;59.25;47151.36;105702;1258;63399;-54
2024/03/13 08:59:23;;;;;;;25.40;8.80;;;;;;;-147.86;59.34;47164.29;105718;1253;71684;-48
2024/03/13 09:02:09;;;;;;;18.10;8.60;;;;;;;-147.86;56.14;47201.93;105693;1254;60509;-49
2024/03/13 09:04:54;;;;;;;;;;;;;;;-147.86;56.01;47246.21;105927;1254;60519;-50
2024/03/13 09:07:40;;;;;;;22.00;9.10;;;;;;;-147.86;56.87;47270.52;105691;1255;73723;-46
2024/03/13 09:10:12;;;;;;;23.20;10.90;;;;;;;-147.86;56.82;47290.90;105730;1256;65136;-47
2024/03/13 09:12:40;;;;;;;25.90;8.20;;;;;;;-147.86;57.04;47294.43;105772;1254;74527;-50
2024/03/13 09:15:09;;;;;;;19.80;7.50;;;;;;;-147.86;54.02;47314.03;105722;1257;60483;-45
2024/03/13 09:17:38;;;;;;;24.70;11.00;;;;;;;-147.86;53.61;47327.35;105773;1257;60430;-47
2024/03/13 09:20:07;;;;;;;22.00;8.00;;;;;;;-147.86;53.61;47349.70;105694;1253;73984;-46
2024/03/13 09:22:34;;;;;;;18.50;7.60;;;;;;;-147.86;51.94;47373.22;105732;1258;65180;-47
2024/03/13 09:25:03;;;;;;;18.60;6.80;;;;;;;-147.86;50.27;47411.24;105679;1257;74554;-48
2024/03/13 09:27:30;;;;;;;23.50;8.00;;;;;;;-147.86;50.22;47441.43;105704;1257;60550;-47
2024/03/13 09:30:00;;;;;;;35.60;10.00;;;;;;;-147.86;49.73;47484.16;105716;1253;61957;-47
2024/03/13 09:32:29;;;;;;;18.50;6.50;;;;;;;-147.86;49.48;47507.28;105756;1257;73668;-47
2024/03/13 09:34:57;;;;;;;20.30;6.60;;;;;;;-147.86;49.44;47528.06;105707;1257;65259;-45
2024/03/13 09:37:26;;;;;;;20.50;7.30;;;;;;;-147.86;48.95;47558.24;105873;1257;72999;-46
2024/03/13 09:39:55;;;;;;;26.40;9.80;;;;;;;-147.86;49.71;47578.23;105735;1254;60906;-48
2024/03/13 09:42:23;;;;;;;18.30;6.70;;;;;;;-147.86;48.90;47609.60;105743;1253;60455;-47
2024/03/13 09:44:52;;;;;;;21.30;5.80;;;;;;;-147.86;48.19;47624.49;105724;1258;75742;-48
2024/03/13 09:47:20;;;;;;;20.10;7.00;;;;;;;-147.86;47.55;47650.36;105711;1257;66847;-47
2024/03/13 09:49:49;;;;;;;25.30;7.20;;;;;;;-147.86;47.39;47669.57;105706;1253;72527;-46
2024/03/13 09:52:17;;;;;;;21.70;7.50;;;;;;;-147.86;47.65;47694.66;105721;1257;60441;-48
2024/03/13 09:54:44;;;;;;;18.70;6.60;;;;;;;-147.86;47.05;47699.37;105882;1253;62071;-48
2024/03/13 09:57:12;;;;;;;16.70;7.10;;;;;;;-147.86;45.82;47744.05;105738;1253;74214;-49
2024/03/13 09:59:41;;;;;;;19.60;8.40;;;;;;;-147.86;45.71;47770.71;105697;1253;64783;-50
2024/03/13 10:02:16;;;;;;;30.00;12.10;;;;;;;-147.86;45.22;47796.20;105749;1253;72599;-46
2024/03/13 10:04:44;;;;;;;10.80;6.10;;;;;;;-147.86;44.80;47831.09;105731;1257;60460;-46
2024/03/13 10:07:17;;;;;;;37.20;7.70;;;;;;;-147.86;44.26;47858.14;105701;1257;60440;-48
2024/03/13 10:09:47;;;;;;;13.40;7.00;;;;;;;-147.86;44.13;47882.05;105716;1257;74618;-48
2024/03/13 10:12:19;;;;;;;21.80;6.60;;;;;;;-147.86;43.63;47902.45;105700;1253;64026;-49
2024/03/13 10:20:29;;;;;;;10.20;5.30;;;;;;;-147.86;43.35;47662.57;103740;1285;600174;-46
2024/03/13 10:22:57;;;;;;;19.40;6.10;;;;;;;-147.86;42.96;47994.96;105074;1270;59555;-46
2024/03/13 10:25:27;;;;;;;14.10;5.60;;;;;;;-147.86;42.62;48014.18;105121;1273;59761;-49
2024/03/13 10:27:56;;;;;;;12.80;5.60;;;;;;;-147.86;42.93;48033.38;104916;1270;73021;-47
2024/03/13 10:30:25;;;;;;;17.00;5.90;;;;;;;-147.86;42.29;48050.24;104891;1270;65497;-46
2024/03/13 10:32:54;;;;;;;21.80;5.30;;;;;;;-147.86;42.16;48069.84;105098;1264;73202;-48
2024/03/13 10:35:25;;;;;;;15.20;5.70;;;;;;;-147.86;41.67;48082.79;103895;1264;61643;-46
2024/03/13 10:37:53;;;;;;;13.80;4.60;;;;;;;-147.86;41.35;48112.97;105271;1264;59438;-50
2024/03/13 10:40:24;;;;;;;12.50;5.50;;;;;;;-147.86;41.05;48115.72;105253;1261;74198;-48
2024/03/13 10:42:53;;;;;;;18.60;5.80;;;;;;;-147.86;40.08;48120.42;105305;1266;64680;-48
2024/03/13 10:45:21;;;;;;;32.30;7.90;;;;;;;-147.86;39.11;48132.97;105227;1266;72721;-47
2024/03/13 10:47:49;;;;;;;43.10;16.40;;;;;;;-147.86;39.10;48140.81;105245;1267;62040;-48
2024/03/13 10:50:17;;;;;;;31.20;10.50;;;;;;;-147.86;39.13;48151.79;104993;1260;59933;-46
2024/03/13 10:52:45;;;;;;;19.90;5.70;;;;;;;-147.86;38.79;48172.57;105161;1268;73470;-48
2024/03/13 10:55:13;;;;;;;30.00;6.00;;;;;;;-147.86;39.09;48183.15;105293;1267;67496;-47
2024/03/13 10:57:41;;;;;;;33.00;6.00;;;;;;;-147.86;39.35;48194.91;105229;1263;73725;-48
2024/03/13 11:00:21;;;;;;;23.90;6.20;;;;;;;-147.86;38.95;48227.06;105224;1267;61233;-47
2024/03/13 11:02:49;;;;;;;33.90;6.10;;;;;;;-147.86;38.83;48232.95;105326;1267;61836;-46
2024/03/13 11:05:17;;;;;;;27.80;11.60;;;;;;;-147.86;38.92;48254.12;105242;1266;75071;-46
2024/03/13 11:07:45;;;;;;;19.40;6.50;;;;;;;-147.86;38.79;48271.76;105244;1267;65665;-47
2024/03/13 11:10:15;;;;;;;15.90;5.80;;;;;;;-147.86;38.70;48282.35;105225;1267;72898;-47
2024/03/13 11:12:43;;;;;;;17.10;5.70;;;;;;;-147.86;38.76;48289.80;105248;1266;59727;-48
2024/03/13 11:15:13;;;;;;;12.10;5.30;;;;;;;-147.86;38.80;48316.07;105255;1267;60884;-49
2024/03/13 11:17:42;;;;;;;23.60;6.00;;;;;;;-147.86;38.52;48318.42;105203;1267;73613;-48
2024/03/13 11:20:14;;;;;;;18.70;6.20;;;;;;;-147.86;38.24;48326.65;105100;1269;65016;-49
2024/03/13 11:22:42;;;;;;;21.70;6.10;;;;;;;-147.86;38.36;48347.04;105201;1267;72755;-47
2024/03/13 11:25:18;;;;;;;23.60;5.50;;;;;;;-147.86;38.13;48355.67;105206;1267;61517;-46
2024/03/13 11:27:54;;;;;;;15.20;5.90;;;;;;;-147.86;37.48;48372.92;105152;1263;61120;-46
2024/03/13 11:30:22;;;;;;;;;;;;;;;-147.86;36.70;48381.94;105212;1264;73058;-47
2024/03/13 11:32:51;;;;;;;22.30;6.50;;;;;;;-147.86;35.91;48387.43;105143;1264;65350;-47
2024/03/13 11:35:19;;;;;;;22.10;5.60;;;;;;;-147.86;36.65;48396.05;105169;1267;72876;-46
2024/03/13 11:37:47;;;;;;;17.90;5.50;;;;;;;-147.86;37.96;48388.61;105187;1270;59739;-48
2024/03/13 11:40:17;;;;;;;20.80;6.00;;;;;;;-147.86;38.52;48410.96;105148;1270;60723;-46
2024/03/13 11:42:45;;;;;;;22.70;5.60;;;;;;;-147.86;37.70;48414.87;105004;1266;73222;-48
2024/03/13 11:45:16;;;;;;;22.90;5.90;;;;;;;-147.86;37.42;48437.62;105070;1266;63491;-47
2024/03/13 11:47:47;;;;;;;30.20;5.90;;;;;;;-147.86;37.08;48445.07;105182;1269;73455;-47
2024/03/13 11:50:15;;;;;;;18.70;5.50;;;;;;;-147.86;36.14;48438.79;105194;1269;61509;-47